sensor_id;sensor_type;location;lat;lon;timestamp;P1;durP1;ratioP1;P2;durP2;ratioP2
25503;SDS011;13410;52.114;5.718;2022-08-24T00:02:24;15.38;;;13.70;;
25503;SDS011;13410;52.114;5.718;2022-08-24T00:04:50;18.08;;;14.15;;
25503;SDS011;13410;52.114;5.718;2022-08-24T00:07:18;17.05;;;14.48;;
25503;SDS011;13410;52.114;5.718;2022-08-24T00:09:45;15.80;;;13.48;;
25503;SDS011;13410;52.114;5.718;2022-08-24T00:12:11;17.05;;;14.52;;
25503;SDS011;13410;52.114;5.718;2022-08-24T00:14:38;19.00;;;14.50;;
25503;SDS011;13410;52.114;5.718;2022-08-24T00:17:04;16.70;;;13.82;;
25503;SDS011;13410;52.114;5.718;2022-08-24T00:19:30;16.92;;;15.10;;
25503;SDS011;13410;52.114;5.718;2022-08-24T00:21:56;18.88;;;13.73;;
25503;SDS011;13410;52.114;5.718;2022-08-24T00:24:21;19.58;;;15.48;;
25503;SDS011;13410;52.114;5.718;2022-08-24T00:26:47;19.65;;;15.40;;
25503;SDS011;13410;52.114;5.718;2022-08-24T00:29:14;20.55;;;15.07;;
25503;SDS011;13410;52.114;5.718;2022-08-24T00:31:41;14.82;;;12.55;;
25503;SDS011;13410;52.114;5.718;2022-08-24T00:34:07;16.75;;;14.63;;
25503;SDS011;13410;52.114;5.718;2022-08-24T00:36:33;15.88;;;14.20;;
25503;SDS011;13410;52.114;5.718;2022-08-24T00:38:59;17.10;;;14.23;;
25503;SDS011;13410;52.114;5.718;2022-08-24T00:41:25;15.10;;;13.27;;
25503;SDS011;13410;52.114;5.718;2022-08-24T00:46:24;17.52;;;15.73;;
25503;SDS011;13410;52.114;5.718;2022-08-24T00:48:58;15.77;;;14.10;;
25503;SDS011;13410;52.114;5.718;2022-08-24T00:51:34;18.33;;;16.00;;
25503;SDS011;13410;52.114;5.718;2022-08-24T00:54:07;18.52;;;13.82;;
25503;SDS011;13410;52.114;5.718;2022-08-24T00:56:37;16.27;;;14.40;;
25503;SDS011;13410;52.114;5.718;2022-08-24T00:59:17;18.10;;;13.93;;
25503;SDS011;13410;52.114;5.718;2022-08-24T01:01:48;15.38;;;13.80;;
25503;SDS011;13410;52.114;5.718;2022-08-24T01:04:17;19.60;;;16.00;;
25503;SDS011;13410;52.114;5.718;2022-08-24T01:06:47;19.55;;;14.90;;
25503;SDS011;13410;52.114;5.718;2022-08-24T01:09:13;18.48;;;15.88;;
25503;SDS011;13410;52.114;5.718;2022-08-24T01:11:39;19.20;;;15.50;;
25503;SDS011;13410;52.114;5.718;2022-08-24T01:14:05;16.98;;;15.18;;
25503;SDS011;13410;52.114;5.718;2022-08-24T01:16:31;19.63;;;16.52;;
25503;SDS011;13410;52.114;5.718;2022-08-24T01:19:28;18.35;;;16.45;;
25503;SDS011;13410;52.114;5.718;2022-08-24T01:25:08;19.75;;;17.10;;
25503;SDS011;13410;52.114;5.718;2022-08-24T01:27:34;17.08;;;14.98;;
25503;SDS011;13410;52.114;5.718;2022-08-24T01:30:04;18.50;;;15.40;;
25503;SDS011;13410;52.114;5.718;2022-08-24T01:32:32;21.00;;;16.63;;
25503;SDS011;13410;52.114;5.718;2022-08-24T01:34:58;17.17;;;15.38;;
25503;SDS011;13410;52.114;5.718;2022-08-24T01:37:24;22.20;;;15.20;;
25503;SDS011;13410;52.114;5.718;2022-08-24T01:39:50;21.35;;;15.77;;
25503;SDS011;13410;52.114;5.718;2022-08-24T01:42:19;15.60;;;13.80;;
25503;SDS011;13410;52.114;5.718;2022-08-24T01:44:45;14.73;;;12.93;;
25503;SDS011;13410;52.114;5.718;2022-08-24T01:47:11;14.07;;;12.50;;
25503;SDS011;13410;52.114;5.718;2022-08-24T01:49:39;19.00;;;16.17;;
25503;SDS011;13410;52.114;5.718;2022-08-24T01:52:08;18.10;;;15.57;;
25503;SDS011;13410;52.114;5.718;2022-08-24T01:54:36;17.73;;;15.38;;
25503;SDS011;13410;52.114;5.718;2022-08-24T01:57:03;18.17;;;16.27;;
25503;SDS011;13410;52.114;5.718;2022-08-24T01:59:28;19.52;;;15.93;;
25503;SDS011;13410;52.114;5.718;2022-08-24T02:02:00;18.02;;;15.27;;
25503;SDS011;13410;52.114;5.718;2022-08-24T02:04:31;16.92;;;15.13;;
25503;SDS011;13410;52.114;5.718;2022-08-24T02:06:58;17.00;;;14.43;;
25503;SDS011;13410;52.114;5.718;2022-08-24T02:09:24;17.33;;;15.50;;
25503;SDS011;13410;52.114;5.718;2022-08-24T02:11:50;17.63;;;15.77;;
25503;SDS011;13410;52.114;5.718;2022-08-24T02:14:15;16.73;;;15.00;;
25503;SDS011;13410;52.114;5.718;2022-08-24T02:16:43;16.83;;;15.13;;
25503;SDS011;13410;52.114;5.718;2022-08-24T02:19:08;17.00;;;15.20;;
25503;SDS011;13410;52.114;5.718;2022-08-24T02:21:34;20.02;;;15.05;;
25503;SDS011;13410;52.114;5.718;2022-08-24T02:24:00;17.42;;;15.60;;
25503;SDS011;13410;52.114;5.718;2022-08-24T02:26:26;18.85;;;16.17;;
25503;SDS011;13410;52.114;5.718;2022-08-24T02:28:51;17.20;;;15.20;;
25503;SDS011;13410;52.114;5.718;2022-08-24T02:31:17;18.90;;;16.17;;
25503;SDS011;13410;52.114;5.718;2022-08-24T02:33:42;20.63;;;17.33;;
25503;SDS011;13410;52.114;5.718;2022-08-24T02:36:09;19.58;;;17.10;;
25503;SDS011;13410;52.114;5.718;2022-08-24T02:38:39;18.95;;;16.95;;
25503;SDS011;13410;52.114;5.718;2022-08-24T02:41:05;20.15;;;16.50;;
25503;SDS011;13410;52.114;5.718;2022-08-24T02:43:31;17.88;;;15.98;;
25503;SDS011;13410;52.114;5.718;2022-08-24T02:45:57;19.45;;;16.67;;
25503;SDS011;13410;52.114;5.718;2022-08-24T02:48:23;18.58;;;16.63;;
25503;SDS011;13410;52.114;5.718;2022-08-24T02:50:50;20.50;;;17.77;;
25503;SDS011;13410;52.114;5.718;2022-08-24T02:53:17;18.45;;;16.55;;
25503;SDS011;13410;52.114;5.718;2022-08-24T02:55:44;18.63;;;15.65;;
25503;SDS011;13410;52.114;5.718;2022-08-24T02:58:11;17.65;;;15.18;;
25503;SDS011;13410;52.114;5.718;2022-08-24T03:00:38;18.08;;;15.73;;
25503;SDS011;13410;52.114;5.718;2022-08-24T03:03:05;17.65;;;15.85;;
25503;SDS011;13410;52.114;5.718;2022-08-24T03:05:31;17.98;;;15.13;;
25503;SDS011;13410;52.114;5.718;2022-08-24T03:07:58;16.45;;;14.85;;
25503;SDS011;13410;52.114;5.718;2022-08-24T03:10:23;11.55;;;10.35;;
25503;SDS011;13410;52.114;5.718;2022-08-24T03:12:49;13.77;;;12.32;;
25503;SDS011;13410;52.114;5.718;2022-08-24T03:15:16;14.93;;;13.15;;
25503;SDS011;13410;52.114;5.718;2022-08-24T03:17:43;13.70;;;11.95;;
25503;SDS011;13410;52.114;5.718;2022-08-24T03:20:13;17.10;;;12.85;;
25503;SDS011;13410;52.114;5.718;2022-08-24T03:22:41;14.10;;;11.88;;
25503;SDS011;13410;52.114;5.718;2022-08-24T03:25:07;16.80;;;13.52;;
25503;SDS011;13410;52.114;5.718;2022-08-24T03:27:34;15.32;;;13.18;;
25503;SDS011;13410;52.114;5.718;2022-08-24T03:30:00;16.48;;;11.75;;
25503;SDS011;13410;52.114;5.718;2022-08-24T03:32:26;14.15;;;11.23;;
25503;SDS011;13410;52.114;5.718;2022-08-24T03:34:52;13.95;;;11.95;;
25503;SDS011;13410;52.114;5.718;2022-08-24T03:37:18;13.90;;;12.48;;
25503;SDS011;13410;52.114;5.718;2022-08-24T03:39:44;13.30;;;11.40;;
25503;SDS011;13410;52.114;5.718;2022-08-24T03:42:11;14.00;;;12.50;;
25503;SDS011;13410;52.114;5.718;2022-08-24T03:44:37;14.55;;;13.02;;
25503;SDS011;13410;52.114;5.718;2022-08-24T03:47:03;16.08;;;13.73;;
25503;SDS011;13410;52.114;5.718;2022-08-24T03:49:28;16.85;;;14.55;;
25503;SDS011;13410;52.114;5.718;2022-08-24T03:51:54;17.27;;;14.55;;
25503;SDS011;13410;52.114;5.718;2022-08-24T03:54:20;17.63;;;14.75;;
25503;SDS011;13410;52.114;5.718;2022-08-24T03:56:45;19.77;;;14.60;;
25503;SDS011;13410;52.114;5.718;2022-08-24T03:59:11;13.95;;;12.45;;
25503;SDS011;13410;52.114;5.718;2022-08-24T04:01:37;14.82;;;12.75;;
25503;SDS011;13410;52.114;5.718;2022-08-24T04:04:03;17.60;;;13.35;;
25503;SDS011;13410;52.114;5.718;2022-08-24T04:06:29;15.18;;;13.57;;
25503;SDS011;13410;52.114;5.718;2022-08-24T04:08:55;14.82;;;12.35;;
25503;SDS011;13410;52.114;5.718;2022-08-24T04:11:22;13.05;;;11.75;;
25503;SDS011;13410;52.114;5.718;2022-08-24T04:13:51;16.98;;;12.57;;
25503;SDS011;13410;52.114;5.718;2022-08-24T04:16:20;15.85;;;12.48;;
25503;SDS011;13410;52.114;5.718;2022-08-24T04:18:47;17.85;;;11.98;;
25503;SDS011;13410;52.114;5.718;2022-08-24T04:21:14;15.05;;;11.77;;
25503;SDS011;13410;52.114;5.718;2022-08-24T04:23:42;15.50;;;13.20;;
25503;SDS011;13410;52.114;5.718;2022-08-24T04:26:07;14.70;;;13.10;;
25503;SDS011;13410;52.114;5.718;2022-08-24T04:28:33;14.02;;;12.52;;
25503;SDS011;13410;52.114;5.718;2022-08-24T04:30:58;18.30;;;13.43;;
25503;SDS011;13410;52.114;5.718;2022-08-24T04:33:24;14.82;;;13.32;;
25503;SDS011;13410;52.114;5.718;2022-08-24T04:35:50;16.70;;;11.70;;
25503;SDS011;13410;52.114;5.718;2022-08-24T04:38:16;16.27;;;11.18;;
25503;SDS011;13410;52.114;5.718;2022-08-24T04:40:43;16.23;;;11.35;;
25503;SDS011;13410;52.114;5.718;2022-08-24T04:43:10;18.58;;;11.75;;
25503;SDS011;13410;52.114;5.718;2022-08-24T04:45:39;15.02;;;10.77;;
25503;SDS011;13410;52.114;5.718;2022-08-24T04:48:06;16.52;;;12.07;;
25503;SDS011;13410;52.114;5.718;2022-08-24T04:50:36;15.40;;;11.95;;
25503;SDS011;13410;52.114;5.718;2022-08-24T04:53:03;16.65;;;11.55;;
25503;SDS011;13410;52.114;5.718;2022-08-24T04:55:30;24.13;;;12.98;;
25503;SDS011;13410;52.114;5.718;2022-08-24T04:57:56;14.73;;;11.88;;
25503;SDS011;13410;52.114;5.718;2022-08-24T05:00:22;18.58;;;11.93;;
25503;SDS011;13410;52.114;5.718;2022-08-24T05:02:48;14.63;;;10.75;;
25503;SDS011;13410;52.114;5.718;2022-08-24T05:05:14;29.27;;;10.68;;
25503;SDS011;13410;52.114;5.718;2022-08-24T05:07:40;48.63;;;11.70;;
25503;SDS011;13410;52.114;5.718;2022-08-24T05:10:07;25.25;;;10.63;;
25503;SDS011;13410;52.114;5.718;2022-08-24T05:12:35;14.15;;;10.38;;
25503;SDS011;13410;52.114;5.718;2022-08-24T05:15:02;16.27;;;9.80;;
25503;SDS011;13410;52.114;5.718;2022-08-24T05:17:28;13.95;;;11.40;;
25503;SDS011;13410;52.114;5.718;2022-08-24T05:19:54;14.55;;;9.32;;
25503;SDS011;13410;52.114;5.718;2022-08-24T05:22:22;25.77;;;10.55;;
25503;SDS011;13410;52.114;5.718;2022-08-24T05:24:48;40.30;;;11.98;;
25503;SDS011;13410;52.114;5.718;2022-08-24T05:27:14;19.30;;;11.70;;
25503;SDS011;13410;52.114;5.718;2022-08-24T05:29:40;20.35;;;10.52;;
25503;SDS011;13410;52.114;5.718;2022-08-24T05:32:05;14.32;;;11.32;;
25503;SDS011;13410;52.114;5.718;2022-08-24T05:34:31;15.60;;;11.13;;
25503;SDS011;13410;52.114;5.718;2022-08-24T05:36:57;11.82;;;8.82;;
25503;SDS011;13410;52.114;5.718;2022-08-24T05:39:22;15.80;;;10.48;;
25503;SDS011;13410;52.114;5.718;2022-08-24T05:41:48;28.45;;;10.55;;
25503;SDS011;13410;52.114;5.718;2022-08-24T05:44:14;25.65;;;10.18;;
25503;SDS011;13410;52.114;5.718;2022-08-24T05:46:41;20.70;;;10.57;;
25503;SDS011;13410;52.114;5.718;2022-08-24T05:49:08;29.70;;;11.15;;
25503;SDS011;13410;52.114;5.718;2022-08-24T05:51:34;28.63;;;10.40;;
25503;SDS011;13410;52.114;5.718;2022-08-24T05:54:00;18.90;;;9.85;;
25503;SDS011;13410;52.114;5.718;2022-08-24T05:56:28;19.75;;;10.38;;
25503;SDS011;13410;52.114;5.718;2022-08-24T05:58:53;22.50;;;10.20;;
25503;SDS011;13410;52.114;5.718;2022-08-24T06:01:23;34.97;;;10.52;;
25503;SDS011;13410;52.114;5.718;2022-08-24T06:03:51;30.20;;;9.93;;
25503;SDS011;13410;52.114;5.718;2022-08-24T06:06:18;34.83;;;9.98;;
25503;SDS011;13410;52.114;5.718;2022-08-24T06:08:45;20.33;;;10.23;;
25503;SDS011;13410;52.114;5.718;2022-08-24T06:11:23;22.02;;;10.75;;
25503;SDS011;13410;52.114;5.718;2022-08-24T06:13:55;18.98;;;10.63;;
25503;SDS011;13410;52.114;5.718;2022-08-24T06:16:25;26.85;;;11.38;;
25503;SDS011;13410;52.114;5.718;2022-08-24T06:18:52;15.68;;;8.35;;
25503;SDS011;13410;52.114;5.718;2022-08-24T06:21:20;17.90;;;12.57;;
25503;SDS011;13410;52.114;5.718;2022-08-24T06:23:47;15.38;;;11.23;;
25503;SDS011;13410;52.114;5.718;2022-08-24T06:26:15;21.25;;;12.85;;
25503;SDS011;13410;52.114;5.718;2022-08-24T06:28:59;19.45;;;12.98;;
25503;SDS011;13410;52.114;5.718;2022-08-24T06:31:26;17.42;;;12.45;;
25503;SDS011;13410;52.114;5.718;2022-08-24T06:33:52;23.02;;;13.95;;
25503;SDS011;13410;52.114;5.718;2022-08-24T06:36:18;19.77;;;13.50;;
25503;SDS011;13410;52.114;5.718;2022-08-24T06:38:44;21.10;;;13.43;;
25503;SDS011;13410;52.114;5.718;2022-08-24T06:41:10;20.65;;;14.93;;
25503;SDS011;13410;52.114;5.718;2022-08-24T06:43:36;20.80;;;15.80;;
25503;SDS011;13410;52.114;5.718;2022-08-24T06:46:02;24.17;;;15.15;;
25503;SDS011;13410;52.114;5.718;2022-08-24T06:48:28;20.88;;;14.80;;
25503;SDS011;13410;52.114;5.718;2022-08-24T06:50:55;23.65;;;14.65;;
25503;SDS011;13410;52.114;5.718;2022-08-24T06:53:21;19.95;;;14.75;;
25503;SDS011;13410;52.114;5.718;2022-08-24T06:55:48;27.25;;;14.95;;
25503;SDS011;13410;52.114;5.718;2022-08-24T06:58:18;61.80;;;17.70;;
25503;SDS011;13410;52.114;5.718;2022-08-24T07:00:44;12.23;;;7.78;;
25503;SDS011;13410;52.114;5.718;2022-08-24T07:03:11;17.33;;;11.27;;
25503;SDS011;13410;52.114;5.718;2022-08-24T07:05:38;16.55;;;12.68;;
25503;SDS011;13410;52.114;5.718;2022-08-24T07:08:04;17.15;;;13.02;;
25503;SDS011;13410;52.114;5.718;2022-08-24T07:10:31;22.10;;;14.63;;
25503;SDS011;13410;52.114;5.718;2022-08-24T07:12:58;14.85;;;12.65;;
25503;SDS011;13410;52.114;5.718;2022-08-24T07:15:24;14.60;;;13.20;;
25503;SDS011;13410;52.114;5.718;2022-08-24T07:17:50;15.02;;;9.13;;
25503;SDS011;13410;52.114;5.718;2022-08-24T07:20:17;16.48;;;13.57;;
25503;SDS011;13410;52.114;5.718;2022-08-24T07:22:43;9.65;;;7.07;;
25503;SDS011;13410;52.114;5.718;2022-08-24T07:25:09;17.25;;;14.13;;
25503;SDS011;13410;52.114;5.718;2022-08-24T07:27:36;13.10;;;11.60;;
25503;SDS011;13410;52.114;5.718;2022-08-24T07:30:02;20.00;;;14.23;;
25503;SDS011;13410;52.114;5.718;2022-08-24T07:32:28;17.83;;;13.48;;
25503;SDS011;13410;52.114;5.718;2022-08-24T07:34:54;12.70;;;9.95;;
25503;SDS011;13410;52.114;5.718;2022-08-24T07:37:19;18.13;;;10.43;;
25503;SDS011;13410;52.114;5.718;2022-08-24T07:39:45;9.88;;;8.40;;
25503;SDS011;13410;52.114;5.718;2022-08-24T07:42:10;16.98;;;13.30;;
25503;SDS011;13410;52.114;5.718;2022-08-24T07:44:37;19.40;;;14.75;;
25503;SDS011;13410;52.114;5.718;2022-08-24T07:47:03;19.40;;;15.52;;
25503;SDS011;13410;52.114;5.718;2022-08-24T07:49:29;18.25;;;11.27;;
25503;SDS011;13410;52.114;5.718;2022-08-24T07:51:55;16.38;;;13.48;;
25503;SDS011;13410;52.114;5.718;2022-08-24T07:54:21;15.57;;;13.88;;
25503;SDS011;13410;52.114;5.718;2022-08-24T07:56:46;12.60;;;11.32;;
25503;SDS011;13410;52.114;5.718;2022-08-24T07:59:14;9.73;;;6.97;;
25503;SDS011;13410;52.114;5.718;2022-08-24T08:01:40;14.90;;;13.40;;
25503;SDS011;13410;52.114;5.718;2022-08-24T08:04:06;20.67;;;14.35;;
25503;SDS011;13410;52.114;5.718;2022-08-24T08:06:31;18.23;;;14.82;;
25503;SDS011;13410;52.114;5.718;2022-08-24T08:08:57;19.65;;;13.65;;
25503;SDS011;13410;52.114;5.718;2022-08-24T08:11:23;18.10;;;13.20;;
25503;SDS011;13410;52.114;5.718;2022-08-24T08:13:48;14.75;;;12.80;;
25503;SDS011;13410;52.114;5.718;2022-08-24T08:16:14;15.52;;;11.63;;
25503;SDS011;13410;52.114;5.718;2022-08-24T08:18:40;11.75;;;10.45;;
25503;SDS011;13410;52.114;5.718;2022-08-24T08:21:07;14.60;;;11.18;;
25503;SDS011;13410;52.114;5.718;2022-08-24T08:23:53;12.27;;;9.80;;
25503;SDS011;13410;52.114;5.718;2022-08-24T08:26:37;7.90;;;5.93;;
25503;SDS011;13410;52.114;5.718;2022-08-24T08:29:02;9.13;;;6.10;;
25503;SDS011;13410;52.114;5.718;2022-08-24T08:31:28;11.15;;;6.70;;
25503;SDS011;13410;52.114;5.718;2022-08-24T08:33:54;6.68;;;5.40;;
25503;SDS011;13410;52.114;5.718;2022-08-24T08:36:20;6.75;;;4.95;;
25503;SDS011;13410;52.114;5.718;2022-08-24T08:38:47;7.55;;;5.43;;
25503;SDS011;13410;52.114;5.718;2022-08-24T08:44:27;9.68;;;5.13;;
25503;SDS011;13410;52.114;5.718;2022-08-24T09:06:30;4.93;;;3.22;;
25503;SDS011;13410;52.114;5.718;2022-08-24T09:12:29;4.82;;;3.15;;
25503;SDS011;13410;52.114;5.718;2022-08-24T09:17:53;4.90;;;2.58;;
25503;SDS011;13410;52.114;5.718;2022-08-24T09:23:48;6.10;;;3.47;;
25503;SDS011;13410;52.114;5.718;2022-08-24T09:26:25;22.58;;;3.63;;
25503;SDS011;13410;52.114;5.718;2022-08-24T09:29:11;12.52;;;4.28;;
25503;SDS011;13410;52.114;5.718;2022-08-24T09:37:31;3.67;;;3.20;;
25503;SDS011;13410;52.114;5.718;2022-08-24T09:39:59;6.47;;;3.20;;
25503;SDS011;13410;52.114;5.718;2022-08-24T10:05:25;9.13;;;2.95;;
25503;SDS011;13410;52.114;5.718;2022-08-24T10:10:51;4.65;;;2.20;;
25503;SDS011;13410;52.114;5.718;2022-08-24T10:13:45;3.03;;;1.73;;
25503;SDS011;13410;52.114;5.718;2022-08-24T10:16:19;3.13;;;1.83;;
25503;SDS011;13410;52.114;5.718;2022-08-24T10:25:13;3.17;;;1.70;;
25503;SDS011;13410;52.114;5.718;2022-08-24T10:36:17;5.28;;;2.10;;
25503;SDS011;13410;52.114;5.718;2022-08-24T10:39:20;2.92;;;1.60;;
25503;SDS011;13410;52.114;5.718;2022-08-24T10:45:41;3.63;;;1.80;;
25503;SDS011;13410;52.114;5.718;2022-08-24T10:53:24;1.85;;;1.27;;
25503;SDS011;13410;52.114;5.718;2022-08-24T10:56:03;3.78;;;1.20;;
25503;SDS011;13410;52.114;5.718;2022-08-24T11:01:19;2.88;;;1.40;;
25503;SDS011;13410;52.114;5.718;2022-08-24T11:06:22;1.95;;;1.75;;
25503;SDS011;13410;52.114;5.718;2022-08-24T11:08:57;2.38;;;1.67;;
25503;SDS011;13410;52.114;5.718;2022-08-24T11:11:36;1.50;;;1.40;;
25503;SDS011;13410;52.114;5.718;2022-08-24T11:16:41;1.50;;;1.20;;
25503;SDS011;13410;52.114;5.718;2022-08-24T11:21:59;1.35;;;1.00;;
25503;SDS011;13410;52.114;5.718;2022-08-24T11:24:51;22.05;;;2.50;;
25503;SDS011;13410;52.114;5.718;2022-08-24T11:27:22;1.85;;;1.42;;
25503;SDS011;13410;52.114;5.718;2022-08-24T11:30:12;2.38;;;1.23;;
25503;SDS011;13410;52.114;5.718;2022-08-24T11:33:00;3.20;;;1.60;;
25503;SDS011;13410;52.114;5.718;2022-08-24T11:37:57;1.13;;;0.95;;
25503;SDS011;13410;52.114;5.718;2022-08-24T11:40:33;3.20;;;1.00;;
25503;SDS011;13410;52.114;5.718;2022-08-24T11:50:57;3.47;;;1.40;;
25503;SDS011;13410;52.114;5.718;2022-08-24T11:56:24;1.95;;;1.25;;
25503;SDS011;13410;52.114;5.718;2022-08-24T12:04:20;1.15;;;1.00;;
25503;SDS011;13410;52.114;5.718;2022-08-24T12:16:23;4.32;;;1.27;;
25503;SDS011;13410;52.114;5.718;2022-08-24T12:19:08;2.05;;;1.52;;
25503;SDS011;13410;52.114;5.718;2022-08-24T12:21:40;2.75;;;1.20;;
25503;SDS011;13410;52.114;5.718;2022-08-24T12:24:15;2.72;;;1.20;;
25503;SDS011;13410;52.114;5.718;2022-08-24T12:26:51;2.60;;;1.27;;
25503;SDS011;13410;52.114;5.718;2022-08-24T12:31:55;1.15;;;0.80;;
25503;SDS011;13410;52.114;5.718;2022-08-24T12:34:30;1.33;;;0.98;;
25503;SDS011;13410;52.114;5.718;2022-08-24T12:37:20;2.03;;;0.95;;
25503;SDS011;13410;52.114;5.718;2022-08-24T12:39:56;4.15;;;0.90;;
25503;SDS011;13410;52.114;5.718;2022-08-24T12:45:07;2.58;;;0.80;;
25503;SDS011;13410;52.114;5.718;2022-08-24T12:47:59;1.40;;;1.00;;
25503;SDS011;13410;52.114;5.718;2022-08-24T12:59:04;3.15;;;1.00;;
25503;SDS011;13410;52.114;5.718;2022-08-24T13:01:38;1.80;;;1.20;;
25503;SDS011;13410;52.114;5.718;2022-08-24T13:04:10;1.05;;;0.90;;
25503;SDS011;13410;52.114;5.718;2022-08-24T13:09:12;1.30;;;1.20;;
25503;SDS011;13410;52.114;5.718;2022-08-24T13:12:45;3.63;;;1.30;;
25503;SDS011;13410;52.114;5.718;2022-08-24T13:17:48;2.22;;;1.10;;
25503;SDS011;13410;52.114;5.718;2022-08-24T13:23:01;2.60;;;1.10;;
25503;SDS011;13410;52.114;5.718;2022-08-24T13:25:40;4.45;;;1.30;;
25503;SDS011;13410;52.114;5.718;2022-08-24T13:28:26;5.10;;;1.50;;
25503;SDS011;13410;52.114;5.718;2022-08-24T13:42:17;2.70;;;1.65;;
25503;SDS011;13410;52.114;5.718;2022-08-24T14:01:58;5.63;;;1.55;;
25503;SDS011;13410;52.114;5.718;2022-08-24T14:04:50;6.30;;;1.98;;
25503;SDS011;13410;52.114;5.718;2022-08-24T14:10:43;3.83;;;1.85;;
25503;SDS011;13410;52.114;5.718;2022-08-24T14:20:03;4.95;;;1.80;;
25503;SDS011;13410;52.114;5.718;2022-08-24T14:22:57;4.60;;;1.67;;
25503;SDS011;13410;52.114;5.718;2022-08-24T14:25:45;4.40;;;1.58;;
25503;SDS011;13410;52.114;5.718;2022-08-24T14:34:21;5.05;;;1.65;;
25503;SDS011;13410;52.114;5.718;2022-08-24T14:42:20;6.38;;;1.45;;
25503;SDS011;13410;52.114;5.718;2022-08-24T14:59:53;3.95;;;1.80;;
25503;SDS011;13410;52.114;5.718;2022-08-24T15:02:41;2.35;;;1.60;;
25503;SDS011;13410;52.114;5.718;2022-08-24T15:07:41;5.20;;;1.50;;
25503;SDS011;13410;52.114;5.718;2022-08-24T15:10:22;3.97;;;1.70;;
25503;SDS011;13410;52.114;5.718;2022-08-24T15:13:00;2.45;;;1.50;;
25503;SDS011;13410;52.114;5.718;2022-08-24T15:15:33;1.60;;;1.50;;
25503;SDS011;13410;52.114;5.718;2022-08-24T15:18:04;4.35;;;1.70;;
25503;SDS011;13410;52.114;5.718;2022-08-24T15:28:57;4.95;;;1.80;;
25503;SDS011;13410;52.114;5.718;2022-08-24T15:31:24;1.77;;;1.58;;
25503;SDS011;13410;52.114;5.718;2022-08-24T15:33:57;4.47;;;1.80;;
25503;SDS011;13410;52.114;5.718;2022-08-24T15:36:28;2.10;;;1.40;;
25503;SDS011;13410;52.114;5.718;2022-08-24T15:38:56;2.67;;;1.50;;
25503;SDS011;13410;52.114;5.718;2022-08-24T15:41:26;1.60;;;1.30;;
25503;SDS011;13410;52.114;5.718;2022-08-24T15:46:21;2.58;;;1.50;;
25503;SDS011;13410;52.114;5.718;2022-08-24T15:49:15;3.70;;;1.52;;
25503;SDS011;13410;52.114;5.718;2022-08-24T15:51:49;4.30;;;1.55;;
25503;SDS011;13410;52.114;5.718;2022-08-24T15:56:47;7.80;;;1.80;;
25503;SDS011;13410;52.114;5.718;2022-08-24T15:59:27;2.72;;;1.50;;
25503;SDS011;13410;52.114;5.718;2022-08-24T16:12:55;2.05;;;1.60;;
25503;SDS011;13410;52.114;5.718;2022-08-24T16:15:59;3.13;;;1.60;;
25503;SDS011;13410;52.114;5.718;2022-08-24T16:18:26;3.40;;;1.60;;
25503;SDS011;13410;52.114;5.718;2022-08-24T16:21:10;3.33;;;1.65;;
25503;SDS011;13410;52.114;5.718;2022-08-24T16:23:53;3.13;;;1.58;;
25503;SDS011;13410;52.114;5.718;2022-08-24T16:29:02;1.90;;;1.50;;
25503;SDS011;13410;52.114;5.718;2022-08-24T16:34:08;1.85;;;1.63;;
25503;SDS011;13410;52.114;5.718;2022-08-24T16:36:41;4.20;;;1.60;;
25503;SDS011;13410;52.114;5.718;2022-08-24T16:39:06;2.95;;;1.67;;
25503;SDS011;13410;52.114;5.718;2022-08-24T16:41:36;2.15;;;1.75;;
25503;SDS011;13410;52.114;5.718;2022-08-24T16:44:04;2.50;;;1.73;;
25503;SDS011;13410;52.114;5.718;2022-08-24T16:46:30;2.40;;;1.58;;
25503;SDS011;13410;52.114;5.718;2022-08-24T16:48:56;4.55;;;2.00;;
25503;SDS011;13410;52.114;5.718;2022-08-24T16:51:23;2.55;;;1.60;;
25503;SDS011;13410;52.114;5.718;2022-08-24T16:53:49;2.00;;;1.52;;
25503;SDS011;13410;52.114;5.718;2022-08-24T16:56:14;3.80;;;1.77;;
25503;SDS011;13410;52.114;5.718;2022-08-24T16:58:40;2.30;;;1.77;;
25503;SDS011;13410;52.114;5.718;2022-08-24T17:01:06;4.03;;;1.80;;
25503;SDS011;13410;52.114;5.718;2022-08-24T17:03:31;1.60;;;1.40;;
25503;SDS011;13410;52.114;5.718;2022-08-24T17:05:58;2.40;;;1.67;;
25503;SDS011;13410;52.114;5.718;2022-08-24T17:08:24;5.93;;;2.05;;
25503;SDS011;13410;52.114;5.718;2022-08-24T17:10:51;3.38;;;1.80;;
25503;SDS011;13410;52.114;5.718;2022-08-24T17:13:19;3.42;;;1.70;;
25503;SDS011;13410;52.114;5.718;2022-08-24T17:15:44;3.72;;;1.60;;
25503;SDS011;13410;52.114;5.718;2022-08-24T17:18:10;7.57;;;2.10;;
25503;SDS011;13410;52.114;5.718;2022-08-24T17:20:37;4.70;;;1.83;;
25503;SDS011;13410;52.114;5.718;2022-08-24T17:23:03;2.63;;;1.77;;
25503;SDS011;13410;52.114;5.718;2022-08-24T17:25:29;4.60;;;2.17;;
25503;SDS011;13410;52.114;5.718;2022-08-24T17:27:55;4.43;;;2.47;;
25503;SDS011;13410;52.114;5.718;2022-08-24T17:30:21;3.72;;;2.70;;
25503;SDS011;13410;52.114;5.718;2022-08-24T17:32:48;3.72;;;2.30;;
25503;SDS011;13410;52.114;5.718;2022-08-24T17:35:16;5.70;;;2.28;;
25503;SDS011;13410;52.114;5.718;2022-08-24T17:37:43;3.88;;;2.15;;
25503;SDS011;13410;52.114;5.718;2022-08-24T17:40:10;9.30;;;2.53;;
25503;SDS011;13410;52.114;5.718;2022-08-24T17:42:38;5.87;;;2.60;;
25503;SDS011;13410;52.114;5.718;2022-08-24T17:45:04;6.80;;;2.60;;
25503;SDS011;13410;52.114;5.718;2022-08-24T17:47:30;4.15;;;2.67;;
25503;SDS011;13410;52.114;5.718;2022-08-24T17:49:57;7.22;;;2.60;;
25503;SDS011;13410;52.114;5.718;2022-08-24T17:52:23;4.32;;;2.88;;
25503;SDS011;13410;52.114;5.718;2022-08-24T17:54:50;4.63;;;2.60;;
25503;SDS011;13410;52.114;5.718;2022-08-24T17:57:15;9.88;;;2.90;;
25503;SDS011;13410;52.114;5.718;2022-08-24T17:59:41;8.60;;;3.08;;
25503;SDS011;13410;52.114;5.718;2022-08-24T18:02:09;7.15;;;3.00;;
25503;SDS011;13410;52.114;5.718;2022-08-24T18:04:39;6.43;;;3.17;;
25503;SDS011;13410;52.114;5.718;2022-08-24T18:07:07;4.82;;;3.00;;
25503;SDS011;13410;52.114;5.718;2022-08-24T18:09:48;3.90;;;2.90;;
25503;SDS011;13410;52.114;5.718;2022-08-24T18:12:18;5.30;;;3.13;;
25503;SDS011;13410;52.114;5.718;2022-08-24T18:14:46;5.65;;;3.22;;
25503;SDS011;13410;52.114;5.718;2022-08-24T18:17:13;4.15;;;3.10;;
25503;SDS011;13410;52.114;5.718;2022-08-24T18:19:42;4.68;;;3.50;;
25503;SDS011;13410;52.114;5.718;2022-08-24T18:22:08;10.18;;;3.63;;
25503;SDS011;13410;52.114;5.718;2022-08-24T18:24:35;4.10;;;3.10;;
25503;SDS011;13410;52.114;5.718;2022-08-24T18:27:09;6.88;;;3.60;;
25503;SDS011;13410;52.114;5.718;2022-08-24T18:29:48;4.65;;;3.53;;
25503;SDS011;13410;52.114;5.718;2022-08-24T18:32:14;7.93;;;3.80;;
25503;SDS011;13410;52.114;5.718;2022-08-24T18:34:40;6.07;;;3.55;;
25503;SDS011;13410;52.114;5.718;2022-08-24T18:37:06;7.53;;;3.67;;
25503;SDS011;13410;52.114;5.718;2022-08-24T18:39:32;5.75;;;4.20;;
25503;SDS011;13410;52.114;5.718;2022-08-24T18:41:58;4.18;;;3.53;;
25503;SDS011;13410;52.114;5.718;2022-08-24T18:44:26;4.20;;;3.80;;
25503;SDS011;13410;52.114;5.718;2022-08-24T18:46:52;4.63;;;3.58;;
25503;SDS011;13410;52.114;5.718;2022-08-24T18:49:19;3.88;;;3.30;;
25503;SDS011;13410;52.114;5.718;2022-08-24T18:51:45;6.10;;;3.88;;
25503;SDS011;13410;52.114;5.718;2022-08-24T18:54:15;8.50;;;4.35;;
25503;SDS011;13410;52.114;5.718;2022-08-24T18:56:43;6.07;;;4.40;;
25503;SDS011;13410;52.114;5.718;2022-08-24T18:59:09;9.45;;;4.43;;